createdAt,value
2019-05-01T00:00:41.533Z,10.29
2019-05-01T00:01:41.526Z,10.18
2019-05-01T00:02:41.518Z,10.20
2019-05-01T00:03:41.510Z,10.24
2019-05-01T00:04:41.501Z,10.18
2019-05-01T00:05:41.493Z,10.13
2019-05-01T00:06:41.485Z,10.18
2019-05-01T00:07:41.483Z,10.25
2019-05-01T00:08:41.474Z,10.25
2019-05-01T00:09:41.465Z,10.20
2019-05-01T00:10:41.459Z,10.20
2019-05-01T00:11:41.454Z,10.22
2019-05-01T00:12:41.445Z,10.20
2019-05-01T00:13:41.435Z,10.22
2019-05-01T00:14:41.428Z,10.28
2019-05-01T00:15:41.421Z,10.18
2019-05-01T00:16:41.414Z,10.16
2019-05-01T00:17:41.405Z,10.18
2019-05-01T00:18:41.399Z,10.20
2019-05-01T00:19:41.389Z,10.18
2019-05-01T00:20:41.380Z,10.17
2019-05-01T00:21:41.374Z,10.18
2019-05-01T00:22:41.366Z,10.09
2019-05-01T00:23:41.357Z,10.17
2019-05-01T00:24:41.350Z,10.09
2019-05-01T00:25:41.343Z,10.06
2019-05-01T00:26:41.335Z,10.07
2019-05-01T00:27:41.331Z,10.13
2019-05-01T00:28:41.323Z,10.01
2019-05-01T00:29:41.315Z,10.01
2019-05-01T00:30:41.304Z,9.98
2019-05-01T00:31:41.302Z,9.95
2019-05-01T00:32:41.295Z,9.99
2019-05-01T00:33:41.281Z,9.92
2019-05-01T00:34:41.273Z,10.02
2019-05-01T00:35:41.264Z,9.99
2019-05-01T00:36:41.257Z,9.98
2019-05-01T00:37:41.251Z,9.96
2019-05-01T00:38:41.246Z,9.91
2019-05-01T00:39:41.239Z,9.73
2019-05-01T00:40:41.230Z,9.75
2019-05-01T00:41:41.219Z,9.73
2019-05-01T00:42:41.211Z,9.71
2019-05-01T00:43:41.205Z,9.81
2019-05-01T00:44:41.203Z,9.74
2019-05-01T00:45:41.194Z,9.67
2019-05-01T00:46:41.187Z,9.71
2019-05-01T00:47:41.175Z,9.70
2019-05-01T00:48:41.168Z,9.68
2019-05-01T00:49:41.162Z,9.74
2019-05-01T00:50:41.156Z,9.73
2019-05-01T00:51:41.145Z,9.73
2019-05-01T00:52:41.137Z,9.75
2019-05-01T00:53:41.124Z,9.63
2019-05-01T00:54:41.119Z,9.62
2019-05-01T00:55:41.110Z,9.58
2019-05-01T00:56:41.103Z,9.65
2019-05-01T00:57:41.103Z,9.65
2019-05-01T00:58:41.097Z,9.59
2019-05-01T00:59:41.090Z,9.59
2019-05-01T01:00:43.134Z,9.62
2019-05-01T01:01:41.067Z,9.59
2019-05-01T01:02:41.059Z,9.63
2019-05-01T01:03:41.054Z,9.60
2019-05-01T01:04:41.048Z,9.60
2019-05-01T01:05:41.036Z,9.59
2019-05-01T01:06:41.027Z,9.56
2019-05-01T01:07:41.018Z,9.53
2019-05-01T01:08:41.013Z,9.50
2019-05-01T01:09:41.005Z,9.50
2019-05-01T01:10:40.997Z,9.50
2019-05-01T01:11:40.993Z,9.50
2019-05-01T01:12:40.985Z,9.50
2019-05-01T01:13:40.973Z,9.48
2019-05-01T01:14:40.967Z,9.55
2019-05-01T01:15:40.957Z,9.45
2019-05-01T01:16:40.947Z,9.50
2019-05-01T01:17:40.943Z,9.50
2019-05-01T01:18:40.937Z,9.44
2019-05-01T01:19:40.928Z,9.52
2019-05-01T01:20:40.917Z,9.48
2019-05-01T01:21:40.916Z,9.53
2019-05-01T01:22:40.906Z,9.55
2019-05-01T01:23:40.900Z,9.45
2019-05-01T01:24:40.895Z,9.56
2019-05-01T01:25:40.880Z,9.50
2019-05-01T01:26:40.872Z,9.50
2019-05-01T01:27:40.864Z,9.45
2019-05-01T01:28:40.856Z,9.40
2019-05-01T01:29:40.852Z,9.30
2019-05-01T01:30:40.843Z,9.30
2019-05-01T01:31:40.834Z,9.26
2019-05-01T01:32:40.825Z,9.17
2019-05-01T01:33:40.813Z,9.22
2019-05-01T01:34:40.806Z,9.32
2019-05-01T01:35:40.803Z,9.16
2019-05-01T01:36:40.794Z,9.34
2019-05-01T01:37:40.782Z,9.20
2019-05-01T01:38:40.774Z,9.22
2019-05-01T01:39:40.773Z,9.16
2019-05-01T01:40:40.762Z,9.15
2019-05-01T01:41:40.761Z,9.16
2019-05-01T01:42:40.749Z,9.12
2019-05-01T01:43:40.741Z,9.20
2019-05-01T01:44:40.733Z,9.12
2019-05-01T01:45:40.722Z,9.16
2019-05-01T01:46:40.712Z,9.04
2019-05-01T01:47:40.702Z,9.12
2019-05-01T01:48:40.698Z,9.12
2019-05-01T01:49:40.689Z,9.15
2019-05-01T01:50:40.683Z,9.16
2019-05-01T01:51:40.670Z,9.16
2019-05-01T01:52:40.662Z,9.12
2019-05-01T01:53:40.657Z,8.98
2019-05-01T01:54:40.650Z,9.00
2019-05-01T01:55:40.643Z,9.08
2019-05-01T01:56:40.636Z,9.01
2019-05-01T01:57:40.623Z,9.12
2019-05-01T01:58:40.615Z,9.08
2019-05-01T01:59:40.607Z,9.08
2019-05-01T02:00:40.601Z,9.00
2019-05-01T02:01:40.594Z,9.00
2019-05-01T02:02:40.587Z,8.98
2019-05-01T02:03:40.578Z,8.96
2019-05-01T02:04:40.569Z,9.08
2019-05-01T02:05:40.556Z,9.03
2019-05-01T02:06:40.549Z,9.06
2019-05-01T02:07:40.543Z,9.15
2019-05-01T02:08:40.536Z,9.06
2019-05-01T02:09:40.522Z,9.04
2019-05-01T02:10:42.942Z,9.12
2019-05-01T02:11:40.509Z,8.97
2019-05-01T02:12:40.501Z,9.04
2019-05-01T02:13:40.497Z,8.97
2019-05-01T02:14:40.496Z,9.08
2019-05-01T02:15:40.482Z,9.08
2019-05-01T02:16:40.470Z,8.97
2019-05-01T02:17:40.458Z,9.04
2019-05-01T02:18:40.448Z,9.01
2019-05-01T02:19:40.452Z,8.89
2019-05-01T02:20:40.438Z,8.89
2019-05-01T02:21:40.431Z,8.88
2019-05-01T02:22:40.424Z,8.89
2019-05-01T02:23:40.411Z,8.91
2019-05-01T02:24:40.411Z,9.03
2019-05-01T02:25:40.397Z,8.96
2019-05-01T02:26:40.390Z,9.03
2019-05-01T02:27:40.379Z,8.94
2019-05-01T02:28:40.371Z,8.98
2019-05-01T02:29:40.357Z,8.88
2019-05-01T02:30:40.350Z,8.88
2019-05-01T02:31:40.343Z,8.88
2019-05-01T02:32:40.336Z,8.97
2019-05-01T02:33:40.330Z,8.91
2019-05-01T02:34:40.323Z,9.00
2019-05-01T02:35:40.326Z,8.98
2019-05-01T02:36:40.309Z,9.00
2019-05-01T02:37:40.297Z,9.01
2019-05-01T02:38:40.291Z,9.01
2019-05-01T02:39:40.285Z,9.10
2019-05-01T02:40:40.277Z,9.15
2019-05-01T02:41:41.616Z,9.10
2019-05-01T02:42:40.254Z,9.20
2019-05-01T02:43:40.244Z,9.16
2019-05-01T02:44:40.237Z,9.22
2019-05-01T02:45:40.232Z,9.31
2019-05-01T02:46:40.223Z,9.24
2019-05-01T02:47:40.215Z,9.30
2019-05-01T02:48:40.209Z,9.26
2019-05-01T02:49:40.239Z,9.38
2019-05-01T02:50:40.190Z,9.45
2019-05-01T02:51:40.182Z,9.41
2019-05-01T02:52:40.175Z,9.52
2019-05-01T02:53:40.170Z,9.49
2019-05-01T02:54:40.168Z,9.59
2019-05-01T02:55:40.150Z,9.68
2019-05-01T02:56:40.145Z,9.63
2019-05-01T02:57:40.140Z,9.65
2019-05-01T02:58:40.131Z,9.65
2019-05-01T02:59:40.121Z,9.77
2019-05-01T03:00:40.113Z,9.78
2019-05-01T03:01:47.108Z,9.80
2019-05-01T03:02:40.092Z,9.86
2019-05-01T03:03:40.085Z,9.89
2019-05-01T03:04:40.085Z,9.89
2019-05-01T03:05:40.085Z,9.99
2019-05-01T03:06:40.074Z,9.98
2019-05-01T03:07:40.060Z,10.01
2019-05-01T03:08:40.052Z,10.01
2019-05-01T03:09:40.045Z,9.96
2019-05-01T03:10:40.035Z,10.01
2019-05-01T03:11:40.038Z,9.98
2019-05-01T03:12:40.024Z,10.04
2019-05-01T03:13:40.011Z,9.95
2019-05-01T03:14:40.006Z,9.99
2019-05-01T03:15:39.993Z,9.93
2019-05-01T03:16:39.987Z,9.93
2019-05-01T03:17:39.981Z,9.80
2019-05-01T03:18:39.975Z,9.74
2019-05-01T03:19:39.978Z,9.75
2019-05-01T03:20:39.965Z,9.67
2019-05-01T03:21:39.950Z,9.68
2019-05-01T03:22:39.942Z,9.58
2019-05-01T03:23:39.932Z,9.49
2019-05-01T03:24:39.924Z,9.59
2019-05-01T03:25:39.919Z,9.49
2019-05-01T03:26:39.913Z,9.49
2019-05-01T03:27:39.899Z,9.52
2019-05-01T03:28:39.892Z,9.42
2019-05-01T03:29:39.888Z,9.45
2019-05-01T03:30:39.881Z,9.49
2019-05-01T03:31:39.874Z,9.50
2019-05-01T03:32:39.868Z,9.45
2019-05-01T03:33:39.854Z,9.41
2019-05-01T03:34:39.847Z,9.41
2019-05-01T03:35:39.839Z,9.42
2019-05-01T03:36:39.837Z,9.42
2019-05-01T03:37:39.827Z,9.53
2019-05-01T03:38:39.826Z,9.48
2019-05-01T03:39:39.814Z,9.49
2019-05-01T03:40:39.801Z,9.42
2019-05-01T03:41:39.813Z,9.44
2019-05-01T03:42:39.779Z,9.41
2019-05-01T03:43:39.791Z,9.42
2019-05-01T03:44:39.768Z,9.41
2019-05-01T03:45:39.753Z,9.38
2019-05-01T03:46:39.747Z,9.38
2019-05-01T03:47:39.743Z,9.37
2019-05-01T03:48:39.737Z,9.41
2019-05-01T03:49:39.730Z,9.48
2019-05-01T03:50:39.721Z,9.45
2019-05-01T03:51:39.714Z,9.44
2019-05-01T03:52:39.705Z,9.49
2019-05-01T03:53:39.694Z,9.45
2019-05-01T03:54:39.685Z,9.48
2019-05-01T03:55:39.674Z,9.48
2019-05-01T03:56:39.667Z,9.52
2019-05-01T03:57:39.664Z,9.44
2019-05-01T03:58:39.660Z,9.55
2019-05-01T03:59:39.643Z,9.55
2019-05-01T04:00:39.639Z,9.52
2019-05-01T04:01:39.630Z,9.52
2019-05-01T04:02:39.624Z,9.53
2019-05-01T04:03:39.624Z,9.56
2019-05-01T04:04:39.611Z,9.53
2019-05-01T04:05:39.598Z,9.59
2019-05-01T04:06:39.589Z,9.55
2019-05-01T04:07:39.581Z,9.49
2019-05-01T04:08:39.573Z,9.42
2019-05-01T04:09:39.570Z,9.45
2019-05-01T04:10:39.562Z,9.38
2019-05-01T04:11:39.551Z,9.41
2019-05-01T04:12:39.543Z,9.48
2019-05-01T04:13:39.530Z,9.40
2019-05-01T04:14:39.691Z,9.38
2019-05-01T04:15:39.526Z,9.42
2019-05-01T04:16:39.512Z,9.42
2019-05-01T04:17:39.500Z,9.41
2019-05-01T04:18:39.495Z,9.40
2019-05-01T04:19:39.486Z,9.42
2019-05-01T04:20:39.482Z,9.45
2019-05-01T04:21:39.474Z,9.41
2019-05-01T04:22:39.466Z,9.42
2019-05-01T04:23:39.455Z,9.41
2019-05-01T04:24:39.447Z,9.44
2019-05-01T04:25:39.439Z,9.52
2019-05-01T04:26:39.427Z,9.50
2019-05-01T04:27:39.420Z,9.45
2019-05-01T04:28:39.416Z,9.49
2019-05-01T04:29:39.409Z,9.49
2019-05-01T04:30:39.406Z,9.59
2019-05-01T04:31:39.395Z,9.60
2019-05-01T04:32:51.716Z,9.65
2019-05-01T04:33:39.383Z,9.63
2019-05-01T04:34:39.369Z,9.60
2019-05-01T04:35:39.365Z,9.68
2019-05-01T04:36:39.356Z,9.67
2019-05-01T04:37:39.338Z,9.67
2019-05-01T04:38:39.333Z,9.68
2019-05-01T04:39:39.324Z,9.73
2019-05-01T04:40:39.315Z,9.78
2019-05-01T04:41:39.311Z,9.75
2019-05-01T04:42:39.304Z,9.80
2019-05-01T04:43:39.301Z,9.74
2019-05-01T04:44:39.299Z,9.77
2019-05-01T04:45:39.279Z,9.85
2019-05-01T04:46:39.273Z,9.86
2019-05-01T04:47:39.267Z,9.91
2019-05-01T04:48:39.260Z,9.95
2019-05-01T04:49:39.248Z,10.01
2019-05-01T04:50:39.241Z,9.99
2019-05-01T04:51:39.232Z,10.06
2019-05-01T04:52:39.223Z,10.09
2019-05-01T04:53:39.218Z,10.16
2019-05-01T04:54:39.210Z,10.10
2019-05-01T04:55:39.204Z,10.20
2019-05-01T04:56:39.196Z,10.17
2019-05-01T04:57:39.183Z,10.11
2019-05-01T04:58:39.176Z,10.17
2019-05-01T04:59:39.172Z,10.18
2019-05-01T05:00:39.164Z,10.22
2019-05-01T05:01:39.159Z,10.24
2019-05-01T05:02:39.151Z,10.16
2019-05-01T05:03:39.142Z,10.13
2019-05-01T05:04:39.132Z,10.18
2019-05-01T05:05:39.127Z,10.22
2019-05-01T05:06:39.121Z,10.28
2019-05-01T05:07:39.113Z,10.24
2019-05-01T05:08:39.105Z,10.24
2019-05-01T05:09:39.091Z,10.20
2019-05-01T05:10:39.084Z,10.25
2019-05-01T05:11:39.080Z,10.25
2019-05-01T05:12:39.069Z,10.28
2019-05-01T05:13:39.067Z,10.34
2019-05-01T05:14:39.059Z,10.32
2019-05-01T05:15:39.054Z,10.34
2019-05-01T05:16:39.048Z,10.34
2019-05-01T05:17:39.037Z,10.34
2019-05-01T05:18:39.030Z,10.32
2019-05-01T05:19:39.024Z,10.38
2019-05-01T05:20:39.019Z,10.49
2019-05-01T05:21:39.005Z,10.44
2019-05-01T05:22:38.998Z,10.47
2019-05-01T05:23:38.987Z,10.43
2019-05-01T05:24:38.981Z,10.44
2019-05-01T05:25:38.978Z,10.43
2019-05-01T05:26:38.971Z,10.46
2019-05-01T05:27:38.965Z,10.42
2019-05-01T05:28:38.958Z,10.55
2019-05-01T05:29:38.945Z,10.49
2019-05-01T05:30:38.939Z,10.60
2019-05-01T05:31:38.929Z,10.55
2019-05-01T05:32:38.923Z,10.55
2019-05-01T05:33:38.921Z,10.51
2019-05-01T05:34:38.912Z,10.55
2019-05-01T05:35:38.902Z,10.51
2019-05-01T05:36:38.894Z,10.46
2019-05-01T05:37:38.891Z,10.55
2019-05-01T05:38:38.883Z,10.66
2019-05-01T05:39:38.878Z,10.62
2019-05-01T05:40:38.873Z,10.66
2019-05-01T05:41:38.859Z,10.66
2019-05-01T05:42:38.854Z,10.72
2019-05-01T05:43:38.844Z,10.66
2019-05-01T05:44:38.840Z,10.63
2019-05-01T05:45:38.833Z,10.62
2019-05-01T05:46:38.827Z,10.52
2019-05-01T05:47:38.820Z,10.47
2019-05-01T05:48:38.810Z,10.49
2019-05-01T05:49:38.800Z,10.44
2019-05-01T05:50:38.792Z,10.34
2019-05-01T05:51:38.790Z,10.31
2019-05-01T05:52:38.783Z,10.18
2019-05-01T05:53:38.770Z,10.22
2019-05-01T05:54:38.766Z,10.18
2019-05-01T05:55:38.760Z,10.20
2019-05-01T05:56:38.753Z,10.20
2019-05-01T05:57:38.749Z,10.31
2019-05-01T05:58:38.741Z,10.36
2019-05-01T05:59:38.734Z,10.32
2019-05-01T06:00:38.728Z,10.44
2019-05-01T06:01:38.714Z,10.38
2019-05-01T06:02:38.709Z,10.49
2019-05-01T06:03:38.699Z,10.49
2019-05-01T06:04:38.690Z,10.46
2019-05-01T06:05:38.689Z,10.51
2019-05-01T06:06:38.679Z,10.47
2019-05-01T06:07:38.669Z,10.46
2019-05-01T06:08:38.707Z,10.57
2019-05-01T06:09:38.657Z,10.46
2019-05-01T06:10:38.651Z,10.55
2019-05-01T06:11:38.647Z,10.58
2019-05-01T06:12:41.776Z,10.55
2019-05-01T06:13:38.627Z,10.47
2019-05-01T06:14:38.621Z,10.47
2019-05-01T06:15:41.177Z,10.57
2019-05-01T06:16:40.350Z,10.51
2019-05-01T06:17:38.610Z,10.54
2019-05-01T06:18:39.303Z,10.51
2019-05-01T06:19:38.587Z,10.54
2019-05-01T06:20:38.582Z,10.62
2019-05-01T06:21:38.568Z,10.69
2019-05-01T06:22:40.822Z,10.63
2019-05-01T06:23:38.561Z,10.72
2019-05-01T06:24:40.590Z,10.76
2019-05-01T06:25:38.545Z,10.78
2019-05-01T06:26:39.478Z,10.84
2019-05-01T06:27:38.528Z,10.86
2019-05-01T06:28:38.522Z,10.84
2019-05-01T06:29:38.517Z,10.90
2019-05-01T06:30:42.115Z,10.93
2019-05-01T06:31:38.503Z,10.93
2019-05-01T06:32:40.118Z,11.03
2019-05-01T06:33:44.332Z,10.99
2019-05-01T06:34:38.478Z,11.08
2019-05-01T06:35:39.422Z,11.02
2019-05-01T06:36:38.466Z,11.05
2019-05-01T06:37:38.463Z,11.06
2019-05-01T06:38:38.456Z,11.03
2019-05-01T06:39:38.445Z,11.09
2019-05-01T06:40:38.438Z,11.02
2019-05-01T06:41:42.426Z,10.98
2019-05-01T06:42:38.427Z,10.87
2019-05-01T06:43:38.419Z,10.66
2019-05-01T06:44:41.786Z,10.42
2019-05-01T06:45:38.400Z,10.39
2019-05-01T06:46:38.398Z,10.43
2019-05-01T06:47:42.963Z,10.47
2019-05-01T06:48:38.381Z,10.43
2019-05-01T06:49:38.377Z,10.58
2019-05-01T06:50:41.466Z,10.55
2019-05-01T06:51:38.365Z,10.55
2019-05-01T06:52:38.365Z,10.52
2019-05-01T06:53:39.868Z,10.57
2019-05-01T06:54:38.342Z,10.55
2019-05-01T06:55:38.338Z,10.47
2019-05-01T06:56:38.330Z,10.47
2019-05-01T06:57:43.263Z,10.42
2019-05-01T06:58:38.313Z,10.43
2019-05-01T06:59:38.304Z,10.49
2019-05-01T07:00:39.127Z,10.49
2019-05-01T07:01:38.293Z,10.42
2019-05-01T07:02:38.287Z,10.46
2019-05-01T07:03:40.834Z,10.54
2019-05-01T07:04:39.588Z,10.69
2019-05-01T07:05:38.260Z,10.80
2019-05-01T07:06:38.255Z,10.88
2019-05-01T07:07:38.250Z,10.86
2019-05-01T07:08:39.686Z,10.87
2019-05-01T07:09:38.240Z,10.93
2019-05-01T07:10:44.171Z,10.99
2019-05-01T07:11:38.301Z,11.03
2019-05-01T07:12:38.216Z,10.99
2019-05-01T07:13:40.040Z,11.06
2019-05-01T07:14:38.253Z,11.03
2019-05-01T07:15:38.197Z,10.95
2019-05-01T07:16:39.294Z,10.86
2019-05-01T07:17:38.178Z,10.73
2019-05-01T07:18:38.174Z,10.58
2019-05-01T07:19:40.273Z,10.42
2019-05-01T07:20:38.158Z,10.42
2019-05-01T07:21:38.156Z,10.34
2019-05-01T07:22:42.126Z,10.42
2019-05-01T07:23:38.145Z,10.38
2019-05-01T07:24:38.137Z,10.35
2019-05-01T07:25:39.410Z,10.36
2019-05-01T07:26:38.120Z,10.44
2019-05-01T07:27:38.130Z,10.55
2019-05-01T07:28:38.111Z,10.49
2019-05-01T07:29:39.823Z,10.58
2019-05-01T07:30:38.093Z,10.76
2019-05-01T07:31:38.084Z,10.66
2019-05-01T07:32:41.101Z,10.81
2019-05-01T07:33:38.073Z,10.87
2019-05-01T07:34:38.065Z,10.90
2019-05-01T07:35:38.137Z,11.06
2019-05-01T07:36:38.056Z,11.12
2019-05-01T07:37:38.042Z,11.13
2019-05-01T07:38:38.698Z,11.20
2019-05-01T07:39:38.028Z,11.26
2019-05-01T07:40:38.020Z,11.19
2019-05-01T07:41:39.000Z,11.26
2019-05-01T07:42:38.011Z,11.35
2019-05-01T07:43:37.999Z,11.46
2019-05-01T07:44:37.993Z,11.48
2019-05-01T07:45:38.893Z,11.53
2019-05-01T07:46:37.986Z,11.54
2019-05-01T07:47:37.982Z,11.63
2019-05-01T07:48:41.461Z,11.62
2019-05-01T07:49:37.961Z,11.70
2019-05-01T07:50:37.956Z,11.74
2019-05-01T07:51:42.385Z,11.67
2019-05-01T07:52:37.948Z,11.77
2019-05-01T07:53:37.967Z,11.59
2019-05-01T07:54:42.256Z,11.63
2019-05-01T07:55:37.926Z,11.62
2019-05-01T07:56:37.922Z,11.48
2019-05-01T07:57:39.435Z,11.45
2019-05-01T07:58:37.909Z,11.28
2019-05-01T07:59:37.900Z,11.28
2019-05-01T08:00:41.493Z,11.26
2019-05-01T08:01:37.881Z,11.23
2019-05-01T08:02:37.876Z,11.30
2019-05-01T08:03:42.419Z,11.36
2019-05-01T08:04:37.867Z,11.28
2019-05-01T08:05:40.923Z,11.35
2019-05-01T08:06:37.856Z,11.48
2019-05-01T08:07:37.853Z,11.46
2019-05-01T08:08:39.702Z,11.26
2019-05-01T08:09:37.837Z,11.31
2019-05-01T08:10:37.827Z,11.27
2019-05-01T08:11:39.143Z,11.24
2019-05-01T08:12:37.812Z,11.16
2019-05-01T08:13:37.810Z,11.17
2019-05-01T08:14:37.803Z,11.17
2019-05-01T08:15:37.793Z,11.03
2019-05-01T08:16:42.355Z,11.02
2019-05-01T08:17:37.787Z,10.95
2019-05-01T08:18:37.777Z,10.91
2019-05-01T08:19:39.427Z,10.93
2019-05-01T08:20:37.768Z,10.99
2019-05-01T08:21:37.757Z,11.06
2019-05-01T08:22:39.052Z,11.02
2019-05-01T08:23:37.743Z,11.05
2019-05-01T08:24:37.736Z,11.09
2019-05-01T08:25:37.734Z,11.08
2019-05-01T08:26:39.676Z,11.11
2019-05-01T08:27:37.721Z,11.20
2019-05-01T08:28:37.711Z,11.23
2019-05-01T08:29:42.069Z,11.31
2019-05-01T08:30:37.714Z,11.49
2019-05-01T08:31:37.693Z,11.48
2019-05-01T08:32:38.924Z,11.46
2019-05-01T08:33:37.674Z,11.44
2019-05-01T08:34:48.520Z,11.46
2019-05-01T08:35:37.746Z,11.45
2019-05-01T08:36:37.663Z,11.46
2019-05-01T08:37:37.656Z,11.48
2019-05-01T08:38:37.649Z,11.62
2019-05-01T08:39:39.819Z,11.64
2019-05-01T08:40:37.637Z,11.77
2019-05-01T08:41:37.846Z,11.66
2019-05-01T08:42:42.184Z,11.79
2019-05-01T08:43:37.612Z,11.74
2019-05-01T08:44:37.604Z,11.72
2019-05-01T08:45:40.602Z,11.77
2019-05-01T08:46:37.600Z,11.66
2019-05-01T08:47:37.585Z,11.70
2019-05-01T08:48:37.795Z,11.75
2019-05-01T08:49:42.257Z,11.78
2019-05-01T08:50:37.573Z,11.97
2019-05-01T08:51:37.569Z,11.93
2019-05-01T08:52:37.563Z,12.04
2019-05-01T08:53:37.553Z,12.05
2019-05-01T08:54:37.545Z,12.16
2019-05-01T08:55:39.818Z,12.13
2019-05-01T08:56:37.536Z,12.23
2019-05-01T08:57:39.534Z,12.23
2019-05-01T08:58:37.525Z,12.25
2019-05-01T08:59:37.516Z,12.25
2019-05-01T09:00:41.034Z,12.16
2019-05-01T09:01:37.499Z,12.38
2019-05-01T09:02:41.618Z,12.31
2019-05-01T09:03:37.494Z,12.25
2019-05-01T09:04:37.489Z,12.21
2019-05-01T09:05:37.477Z,12.25
2019-05-01T09:06:39.345Z,12.08
2019-05-01T09:07:37.559Z,12.07
2019-05-01T09:08:37.462Z,12.19
2019-05-01T09:09:39.654Z,12.15
2019-05-01T09:10:37.455Z,12.22
2019-05-01T09:11:37.501Z,12.11
2019-05-01T09:12:37.443Z,12.18
2019-05-01T09:13:37.437Z,12.31
2019-05-01T09:14:37.426Z,12.23
2019-05-01T09:15:37.418Z,12.25
2019-05-01T09:16:37.415Z,12.25
2019-05-01T09:17:37.410Z,12.34
2019-05-01T09:18:37.406Z,12.43
2019-05-01T09:19:37.393Z,12.25
2019-05-01T09:20:37.395Z,12.31
2019-05-01T09:21:38.266Z,12.40
2019-05-01T09:22:37.381Z,12.46
2019-05-01T09:23:37.377Z,12.55
2019-05-01T09:24:37.401Z,12.59
2019-05-01T09:25:37.362Z,12.62
2019-05-01T09:26:37.357Z,12.80
2019-05-01T09:27:37.353Z,12.87
2019-05-01T09:28:39.812Z,12.79
2019-05-01T09:29:37.343Z,12.85
2019-05-01T09:30:37.340Z,12.95
2019-05-01T09:31:37.332Z,13.03
2019-05-01T09:32:37.325Z,13.14
2019-05-01T09:33:37.316Z,13.21
2019-05-01T09:34:37.311Z,13.14
2019-05-01T09:35:40.489Z,13.21
2019-05-01T09:36:37.304Z,13.17
2019-05-01T09:37:37.300Z,13.28
2019-05-01T09:38:37.288Z,13.31
2019-05-01T09:39:37.286Z,13.27
2019-05-01T09:40:37.281Z,13.41
2019-05-01T09:41:38.679Z,13.36
2019-05-01T09:42:37.272Z,13.38
2019-05-01T09:43:37.268Z,13.35
2019-05-01T09:44:37.263Z,13.32
2019-05-01T09:45:37.251Z,13.44
2019-05-01T09:46:37.247Z,13.51
2019-05-01T09:47:37.247Z,13.32
2019-05-01T09:48:37.240Z,13.13
2019-05-01T09:49:37.238Z,13.04
2019-05-01T09:50:37.232Z,12.80
2019-05-01T09:51:37.224Z,12.73
2019-05-01T09:52:37.220Z,12.76
2019-05-01T09:53:37.221Z,12.91
2019-05-01T09:54:37.213Z,12.94
2019-05-01T09:55:37.208Z,13.09
2019-05-01T09:56:38.411Z,13.10
2019-05-01T09:57:41.399Z,13.32
2019-05-01T09:58:37.185Z,13.22
2019-05-01T09:59:37.181Z,13.39
2019-05-01T10:00:37.175Z,13.22
2019-05-01T10:01:37.175Z,13.21
2019-05-01T10:02:37.547Z,13.22
2019-05-01T10:03:37.169Z,13.17
2019-05-01T10:04:37.162Z,13.31
2019-05-01T10:05:38.109Z,13.32
2019-05-01T10:06:37.148Z,13.38
2019-05-01T10:07:37.148Z,13.39
2019-05-01T10:08:40.067Z,13.53
2019-05-01T10:09:37.135Z,13.62
2019-05-01T10:10:37.227Z,13.71
2019-05-01T10:11:40.735Z,13.81
2019-05-01T10:12:37.118Z,13.86
2019-05-01T10:13:37.117Z,13.96
2019-05-01T10:14:37.503Z,14.09
2019-05-01T10:15:37.112Z,14.06
2019-05-01T10:16:37.105Z,13.99
2019-05-01T10:17:37.095Z,14.02
2019-05-01T10:18:37.091Z,14.06
2019-05-01T10:19:37.090Z,13.98
2019-05-01T10:20:37.087Z,13.96
2019-05-01T10:21:37.081Z,13.90
2019-05-01T10:22:37.607Z,13.96
2019-05-01T10:23:37.069Z,14.04
2019-05-01T10:24:39.238Z,14.04
2019-05-01T10:25:37.063Z,14.13
2019-05-01T10:26:37.059Z,14.17
2019-05-01T10:27:37.429Z,14.36
2019-05-01T10:28:37.050Z,14.38
2019-05-01T10:29:37.040Z,14.38
2019-05-01T10:30:37.614Z,14.39
2019-05-01T10:31:37.030Z,14.48
2019-05-01T10:32:37.028Z,14.54
2019-05-01T10:33:37.028Z,14.42
2019-05-01T10:34:38.703Z,14.45
2019-05-01T10:35:42.947Z,14.39
2019-05-01T10:36:37.017Z,14.41
2019-05-01T10:37:37.011Z,14.52
2019-05-01T10:38:39.876Z,14.53
2019-05-01T10:39:37.004Z,14.49
2019-05-01T10:40:37.005Z,14.57
2019-05-01T10:41:41.097Z,14.52
2019-05-01T10:42:36.987Z,14.67
2019-05-01T10:43:36.980Z,14.80
2019-05-01T10:44:36.978Z,14.93
2019-05-01T10:45:36.978Z,14.72
2019-05-01T10:46:36.973Z,14.82
2019-05-01T10:47:36.973Z,14.66
2019-05-01T10:48:36.969Z,14.57
2019-05-01T10:49:36.959Z,14.64
2019-05-01T10:50:36.955Z,14.72
2019-05-01T10:51:36.949Z,14.79
2019-05-01T10:52:36.946Z,14.75
2019-05-01T10:53:36.945Z,14.94
2019-05-01T10:54:36.942Z,14.93
2019-05-01T10:55:36.942Z,15.00
2019-05-01T10:56:36.929Z,15.01
2019-05-01T10:57:40.194Z,14.93
2019-05-01T10:58:36.926Z,15.01
2019-05-01T10:59:36.925Z,15.09
2019-05-01T11:00:36.921Z,15.05
2019-05-01T11:01:36.914Z,15.05
2019-05-01T11:02:36.913Z,14.93
2019-05-01T11:03:36.907Z,14.97
2019-05-01T11:04:36.904Z,15.04
2019-05-01T11:05:36.903Z,15.03
2019-05-01T11:06:36.901Z,14.83
2019-05-01T11:07:36.895Z,14.64
2019-05-01T11:08:36.891Z,14.78
2019-05-01T11:09:36.883Z,14.72
2019-05-01T11:10:36.877Z,14.66
2019-05-01T11:11:36.879Z,14.69
2019-05-01T11:12:36.876Z,14.79
2019-05-01T11:13:36.868Z,14.87
2019-05-01T11:14:36.864Z,14.87
2019-05-01T11:15:36.863Z,14.90
2019-05-01T11:16:36.860Z,14.72
2019-05-01T11:17:36.859Z,14.53
2019-05-01T11:18:36.856Z,14.52
2019-05-01T11:19:36.852Z,14.53
2019-05-01T11:20:36.849Z,14.52
2019-05-01T11:21:36.843Z,14.49
2019-05-01T11:22:36.842Z,14.67
2019-05-01T11:23:36.832Z,14.71
2019-05-01T11:24:36.827Z,14.82
2019-05-01T11:25:36.829Z,14.83
2019-05-01T11:26:36.827Z,14.75
2019-05-01T11:27:36.816Z,14.90
2019-05-01T11:28:36.814Z,14.90
2019-05-01T11:29:36.813Z,14.90
2019-05-01T11:30:36.812Z,15.00
2019-05-01T11:31:36.810Z,14.97
2019-05-01T11:32:36.806Z,15.04
2019-05-01T11:33:36.797Z,15.23
2019-05-01T11:34:36.793Z,15.25
2019-05-01T11:35:36.790Z,15.34
2019-05-01T11:36:36.787Z,15.33
2019-05-01T11:37:36.786Z,15.33
2019-05-01T11:38:36.782Z,15.35
2019-05-01T11:39:40.796Z,15.35
2019-05-01T11:40:36.775Z,15.31
2019-05-01T11:41:36.763Z,15.31
2019-05-01T11:42:36.760Z,15.33
2019-05-01T11:43:36.771Z,15.16
2019-05-01T11:44:36.759Z,15.19
2019-05-01T11:45:36.751Z,14.98
2019-05-01T11:46:36.745Z,14.87
2019-05-01T11:47:36.746Z,14.71
2019-05-01T11:48:36.743Z,14.71
2019-05-01T11:49:36.742Z,14.78
2019-05-01T11:50:36.739Z,14.78
2019-05-01T11:51:36.737Z,14.91
2019-05-01T11:52:36.728Z,14.85
2019-05-01T11:53:36.720Z,15.05
2019-05-01T11:54:36.716Z,15.13
2019-05-01T11:55:36.718Z,15.15
2019-05-01T11:56:36.714Z,15.33
2019-05-01T11:57:36.711Z,15.40
2019-05-01T11:58:36.708Z,15.51
2019-05-01T11:59:36.720Z,15.49
2019-05-01T12:00:36.736Z,15.51
2019-05-01T12:01:36.697Z,15.53
2019-05-01T12:02:36.699Z,15.44
2019-05-01T12:03:36.689Z,15.40
2019-05-01T12:04:36.687Z,15.49
2019-05-01T12:05:36.679Z,15.44
2019-05-01T12:06:36.674Z,15.62
2019-05-01T12:07:36.671Z,15.76
2019-05-01T12:08:36.675Z,15.76
2019-05-01T12:09:36.670Z,15.59
2019-05-01T12:10:36.668Z,15.35
2019-05-01T12:11:36.667Z,14.82
2019-05-01T12:12:36.664Z,14.67
2019-05-01T12:13:43.614Z,14.61
2019-05-01T12:14:36.699Z,14.71
2019-05-01T12:15:36.651Z,14.79
2019-05-01T12:16:36.649Z,14.98
2019-05-01T12:17:38.896Z,15.18
2019-05-01T12:18:36.705Z,15.31
2019-05-01T12:19:36.684Z,15.46
2019-05-01T12:20:36.630Z,15.64
2019-05-01T12:21:36.631Z,15.76
2019-05-01T12:22:36.627Z,15.85
2019-05-01T12:23:36.625Z,15.99
2019-05-01T12:24:36.621Z,16.07
2019-05-01T12:25:36.613Z,16.11
2019-05-01T12:26:36.612Z,16.29
2019-05-01T12:27:36.612Z,16.40
2019-05-01T12:28:36.608Z,16.41
2019-05-01T12:29:36.611Z,16.13
2019-05-01T12:30:36.605Z,16.17
2019-05-01T12:31:36.599Z,16.27
2019-05-01T12:32:36.599Z,16.36
2019-05-01T12:33:36.597Z,16.40
2019-05-01T12:34:36.595Z,16.40
2019-05-01T12:35:36.594Z,16.42
2019-05-01T12:36:36.822Z,16.47
2019-05-01T12:37:36.583Z,16.50
2019-05-01T12:38:36.591Z,16.60
2019-05-01T12:39:36.574Z,16.44
2019-05-01T12:40:36.571Z,16.10
2019-05-01T12:41:36.573Z,15.98
2019-05-01T12:42:36.568Z,16.07
2019-05-01T12:43:36.570Z,16.06
2019-05-01T12:44:36.565Z,16.11
2019-05-01T12:45:36.559Z,16.32
2019-05-01T12:46:36.556Z,16.34
2019-05-01T12:47:38.103Z,16.42
2019-05-01T12:48:36.557Z,16.57
2019-05-01T12:49:36.549Z,16.54
2019-05-01T12:50:36.546Z,16.54
2019-05-01T12:51:36.541Z,16.51
2019-05-01T12:52:36.540Z,16.63
2019-05-01T12:53:36.539Z,16.84
2019-05-01T12:54:36.538Z,16.90
2019-05-01T12:55:36.533Z,16.98
2019-05-01T12:56:36.537Z,17.06
2019-05-01T12:57:36.530Z,17.07
2019-05-01T12:58:36.541Z,17.14
2019-05-01T12:59:36.524Z,17.03
2019-05-01T13:00:38.570Z,17.03